Sanko Maru — JG5227 — position and weather

sailwx.info

Track history (hours):
 
Tides and Currents Weather Stations Pressure Air Temp Water Temp Dewpoint Dewpoint Depression Visibility Wind Speed Wind Dir Waves Ship Positions

Sanko Maru

Last reported at 2018-Feb-23 08:31 UTC. Time now 2018-Feb-23 08:43 UTC.
Position N 35°10' E 139°46'.

Length 104 m; draft 6.8 m.

Type: Ship (hazmat cat A). MMSI: 431100146.

Date/timePositionNaut miles runAvg speedWind from/ knotsBaromVisibWave heightAir tempDewpointWater temp
2018-Feb-23 08:31N 35°10' E 139°46'612.0
2018-Feb-23 08:00N 35°04' E 139°42'612.0
2018-Feb-23 07:30N 35°00' E 139°37'611.8
2018-Feb-23 06:59N 34°56' E 139°31'711.9
2018-Feb-23 06:21N 34°52' E 139°24'612.7
2018-Feb-23 05:55N 34°49' E 139°18'512.3
2018-Feb-23 05:28N 34°45' E 139°13'612.8
2018-Feb-23 05:00N 34°41' E 139°08'712.5
2018-Feb-23 04:26N 34°36' E 139°02'613.1
2018-Feb-23 04:00N 34°32' E 138°57'712.8
2018-Feb-23 03:28N 34°32' E 138°49'613.2
2018-Feb-23 03:00N 34°32' E 138°41'712.5
2018-Feb-23 02:26N 34°32' E 138°32'912.8
2018-Feb-23 01:44N 34°33' E 138°22'312.5
2018-Feb-23 01:28N 34°33' E 138°18'612.3
2018-Feb-23 00:57N 34°34' E 138°10'4112.7
2018-Feb-22 21:41N 34°36' E 137°20'412.5
2018-Feb-22 21:22N 34°35' E 137°15'512.0
2018-Feb-22 20:59N 34°33' E 137°10'711.9
2018-Feb-22 20:25N 34°32' E 137°02'512.3
2018-Feb-22 20:00N 34°36' E 136°57'612.3
2018-Feb-22 19:30N 34°39' E 136°51'612.4
2018-Feb-22 19:00N 34°45' E 136°47'612.5
2018-Feb-22 18:30N 34°50' E 136°44'612.5
2018-Feb-22 18:00N 34°56' E 136°41'2 4.0
2018-Feb-22 17:28N 34°57' E 136°38'0 0.0
2018-Feb-22 16:59N 34°57' E 136°38'0 0.0
2018-Feb-22 16:28N 34°57' E 136°38'0 0.0
2018-Feb-22 15:58N 34°57' E 136°38'0 0.0
2018-Feb-22 15:25N 34°57' E 136°38'0 0.0
2018-Feb-22 14:58N 34°57' E 136°38'0 0.0
2018-Feb-22 14:29N 34°57' E 136°38'0 0.0
2018-Feb-22 13:55N 34°57' E 136°38'0 0.0
2018-Feb-22 13:25N 34°57' E 136°38'0 0.1
2018-Feb-22 12:58N 34°57' E 136°38'0 0.1
2018-Feb-22 12:25N 34°57' E 136°38'0 0.0
2018-Feb-22 11:58N 34°57' E 136°38'0 0.0
2018-Feb-22 11:29N 34°57' E 136°38'0 0.0
2018-Feb-22 10:55N 34°57' E 136°38'0 0.0
2018-Feb-22 10:28N 34°57' E 136°38'0 0.0
2018-Feb-22 09:58N 34°57' E 136°38'0 0.0
2018-Feb-22 09:28N 34°57' E 136°38'0 0.0
2018-Feb-22 08:55N 34°57' E 136°38'0 0.0
2018-Feb-22 08:30N 34°57' E 136°38'2 4.7
2018-Feb-22 08:00N 34°56' E 136°41'0 0.0
2018-Feb-22 07:28N 34°56' E 136°41'0 0.0
2018-Feb-22 06:58N 34°56' E 136°41'0 0.1
2018-Feb-22 06:28N 34°56' E 136°41'0 0.0
2018-Feb-22 05:58N 34°56' E 136°41'0 0.0
2018-Feb-22 05:28N 34°56' E 136°41'0 0.0
2018-Feb-22 04:58N 34°56' E 136°41'0 0.0
2018-Feb-22 04:28N 34°56' E 136°41'0 0.1
2018-Feb-22 03:58N 34°56' E 136°41'0 0.0
2018-Feb-22 03:28N 34°56' E 136°41'0 0.0
2018-Feb-22 02:55N 34°56' E 136°41'0 0.3
2018-Feb-22 02:30N 34°56' E 136°41'612.2
2018-Feb-22 02:00N 34°51' E 136°45'712.8
2018-Feb-22 01:29N 34°45' E 136°48'612.4
2018-Feb-22 00:59N 34°40' E 136°53'1512.0
2018-Feb-21 23:42N 34°34' E 137°10'312.9
2018-Feb-21 23:29N 34°34' E 137°13'612.6
2018-Feb-21 23:00N 34°35' E 137°20'2512.0
2018-Feb-21 20:53N 34°35' E 137°51'611.9
2018-Feb-21 20:24N 34°35' E 137°58'1211.6
2018-Feb-21 19:20N 34°32' E 138°13'511.7
2018-Feb-21 18:53N 34°32' E 138°19'512.1
2018-Feb-21 18:30N 34°33' E 138°25'712.2
2018-Feb-21 17:56N 34°33' E 138°33'712.2
2018-Feb-21 17:23N 34°34' E 138°41'512.4
2018-Feb-21 16:59N 34°34' E 138°47'612.2
2018-Feb-21 16:30N 34°35' E 138°54'711.8
2018-Feb-21 15:55N 34°39' E 139°01'1113.7
2018-Feb-21 15:08N 34°48' E 139°09'912.7
2018-Feb-21 14:23N 34°55' E 139°16'512.9
2018-Feb-21 14:00N 34°58' E 139°21'612.4
2018-Feb-21 13:30N 35°01' E 139°28'612.9
2018-Feb-21 13:01N 35°04' E 139°35'713.6
2018-Feb-21 12:30N 35°07' E 139°42'713.4
2018-Feb-21 12:00N 35°13' E 139°46'612.6
2018-Feb-21 11:30N 35°19' E 139°43'612.2
2018-Feb-21 11:01N 35°25' E 139°43'713.3
2018-Feb-21 10:30N 35°29' E 139°50'713.2
2018-Feb-21 10:00N 35°32' E 139°56'713.3
2018-Feb-21 09:30N 35°35' E 140°03'1 2.0
2018-Feb-21 08:58N 35°36' E 140°05'0 0.0
2018-Feb-21 08:28N 35°36' E 140°05'0 0.0
2018-Feb-21 07:58N 35°36' E 140°05'0 0.0
2018-Feb-21 07:28N 35°36' E 140°05'0 0.0
2018-Feb-21 06:58N 35°36' E 140°05'0 0.0
2018-Feb-21 06:28N 35°36' E 140°05'0 0.0
2018-Feb-21 05:58N 35°36' E 140°05'0 0.0
2018-Feb-21 05:28N 35°36' E 140°05'0 0.0
2018-Feb-21 04:58N 35°36' E 140°05'0 0.0
2018-Feb-21 04:28N 35°36' E 140°05'0 0.0
2018-Feb-21 03:58N 35°36' E 140°05'0 1.0
2018-Feb-21 03:30N 35°36' E 140°04'1 1.7
2018-Feb-21 02:58N 35°35' E 140°03'0 0.0
2018-Feb-21 02:28N 35°35' E 140°03'0 0.1
2018-Feb-21 01:58N 35°35' E 140°03'0 0.1
2018-Feb-21 01:28N 35°35' E 140°03'1 1.8
2018-Feb-21 01:00N 35°35' E 140°02'611.8
2018-Feb-21 00:30N 35°32' E 139°56'611.6
2018-Feb-21 00:00N 35°28' E 139°51'611.5
2018-Feb-20 23:30N 35°24' E 139°46'611.0
2018-Feb-20 23:01N 35°18' E 139°44'611.6
2018-Feb-20 22:30N 35°13' E 139°47'612.1
2018-Feb-20 22:00N 35°07' E 139°46'611.1
2018-Feb-20 21:29N 35°03' E 139°41'511.1
2018-Feb-20 20:59N 34°60' E 139°36'610.8
2018-Feb-20 20:26N 34°56' E 139°30'510.8
2018-Feb-20 20:00N 34°53' E 139°25'611.1
2018-Feb-20 19:28N 34°50' E 139°19'611.6
2018-Feb-20 18:59N 34°46' E 139°15'611.1
2018-Feb-20 18:26N 34°42' E 139°09'511.6
2018-Feb-20 18:00N 34°38' E 139°05'612.6
2018-Feb-20 17:30N 34°34' E 138°59'612.3
2018-Feb-20 17:00N 34°32' E 138°52'612.2
2018-Feb-20 16:29N 34°33' E 138°44'612.5
2018-Feb-20 15:59N 34°33' E 138°37'813.0
2018-Feb-20 15:24N 34°33' E 138°28'713.1
2018-Feb-20 14:51N 34°34' E 138°19'512.8
2018-Feb-20 14:30N 34°33' E 138°14'912.9
2018-Feb-20 13:50N 34°36' E 138°04'3613.2
2018-Feb-20 11:06N 34°36' E 137°20'412.9
2018-Feb-20 10:48N 34°34' E 137°15'512.6
2018-Feb-20 10:26N 34°33' E 137°10'612.3
2018-Feb-20 09:58N 34°32' E 137°03'710.9
2018-Feb-20 09:21N 34°36' E 136°56'411.8
2018-Feb-20 09:00N 34°39' E 136°52'612.0
2018-Feb-20 08:30N 34°43' E 136°47'612.4
2018-Feb-20 08:00N 34°49' E 136°44'612.0
2018-Feb-20 07:30N 34°54' E 136°42'4 7.1
2018-Feb-20 07:01N 34°57' E 136°38'0 0.2
2018-Feb-20 06:28N 34°57' E 136°38'0 0.0
2018-Feb-20 05:58N 34°57' E 136°38'0 0.0
2018-Feb-20 05:28N 34°57' E 136°38'0 0.0
2018-Feb-20 04:58N 34°57' E 136°38'0 0.0
2018-Feb-20 04:28N 34°57' E 136°38'0 0.0
2018-Feb-20 03:58N 34°57' E 136°38'0 0.0
2018-Feb-20 03:28N 34°57' E 136°38'0 0.0
2018-Feb-20 02:58N 34°57' E 136°38'0 0.0
2018-Feb-20 02:28N 34°57' E 136°38'0 0.0
2018-Feb-20 01:58N 34°57' E 136°38'0 0.0
2018-Feb-20 01:28N 34°57' E 136°38'0 0.0
2018-Feb-20 00:58N 34°57' E 136°38'0 0.0
2018-Feb-20 00:28N 34°57' E 136°38'0 0.0
2018-Feb-19 23:55N 34°57' E 136°38'0 0.0
2018-Feb-19 23:28N 34°57' E 136°38'0 0.0
2018-Feb-19 22:58N 34°57' E 136°38'0 0.0
2018-Feb-19 22:29N 34°57' E 136°38'0 0.0
2018-Feb-19 05:30N 34°57' E 136°38'2 4.4
2018-Feb-19 05:01N 34°56' E 136°41'713.2
2018-Feb-19 04:31N 34°51' E 136°46'3 5.9
2018-Feb-19 03:58N 34°51' E 136°49'0 0.1
2018-Feb-19 03:28N 34°51' E 136°49'0 0.1
2018-Feb-19 02:58N 34°51' E 136°49'0 0.0
2018-Feb-19 02:28N 34°51' E 136°49'0 0.1
2018-Feb-19 01:58N 34°51' E 136°49'0 0.0
2018-Feb-19 01:28N 34°51' E 136°49'0 0.1
2018-Feb-19 00:58N 34°51' E 136°49'0 0.0
2018-Feb-19 00:25N 34°51' E 136°49'0 0.0
2018-Feb-18 23:58N 34°51' E 136°49'1 1.8
2018-Feb-18 23:30N 34°50' E 136°50'2 3.5
2018-Feb-18 23:00N 34°50' E 136°48'611.3
2018-Feb-18 22:30N 34°55' E 136°44'2 2.8
2018-Feb-18 21:58N 34°56' E 136°43'0 0.0
2018-Feb-18 21:28N 34°56' E 136°43'0 0.0
2018-Feb-18 20:58N 34°56' E 136°43'0 0.0
2018-Feb-18 20:28N 34°56' E 136°43'0 0.0
2018-Feb-18 19:58N 34°56' E 136°43'0 0.0
2018-Feb-18 19:28N 34°56' E 136°43'0 0.0
2018-Feb-18 18:58N 34°56' E 136°43'0 0.0
2018-Feb-18 18:28N 34°56' E 136°43'0 0.0
2018-Feb-18 17:58N 34°56' E 136°43'0 0.0
2018-Feb-18 17:25N 34°56' E 136°43'0 0.0
2018-Feb-18 17:00N 34°56' E 136°43'0 0.0
2018-Feb-18 16:30N 34°56' E 136°43'0 0.0
2018-Feb-18 16:00N 34°56' E 136°43'0 0.0
2018-Feb-18 15:30N 34°56' E 136°43'0 0.0
2018-Feb-18 14:57N 34°56' E 136°43'0 0.0
2018-Feb-18 14:30N 34°56' E 136°43'0 0.0
2018-Feb-18 14:00N 34°56' E 136°43'0 0.0
2018-Feb-18 13:30N 34°56' E 136°43'0 0.0
2018-Feb-18 13:00N 34°56' E 136°43'0 0.0
2018-Feb-18 12:30N 34°56' E 136°43'0 0.0
2018-Feb-18 12:00N 34°56' E 136°43'0 0.0
2018-Feb-18 11:30N 34°56' E 136°43'0 0.0
2018-Feb-18 11:00N 34°56' E 136°43'0 0.0
2018-Feb-18 10:30N 34°56' E 136°43'3 6.2
2018-Feb-18 10:00N 34°58' E 136°41'2 4.5
2018-Feb-18 09:28N 34°57' E 136°38'0 0.0
2018-Feb-18 08:58N 34°57' E 136°38'0 0.0
2018-Feb-18 08:28N 34°57' E 136°38'0 0.0
2018-Feb-18 07:58N 34°57' E 136°38'0 0.0
2018-Feb-18 07:28N 34°57' E 136°38'0 0.0
2018-Feb-18 06:55N 34°57' E 136°38'0 0.0
2018-Feb-18 06:28N 34°57' E 136°38'0 0.0
2018-Feb-18 05:58N 34°57' E 136°38'0 0.0
2018-Feb-18 05:25N 34°57' E 136°38'0 0.0
2018-Feb-18 04:55N 34°57' E 136°38'0 0.0
2018-Feb-18 04:28N 34°57' E 136°38'0 0.0
2018-Feb-18 03:55N 34°57' E 136°38'0 0.0
2018-Feb-18 03:28N 34°57' E 136°38'0 0.0
2018-Feb-18 02:58N 34°57' E 136°38'0 0.0
2018-Feb-18 02:25N 34°57' E 136°38'0 0.0
2018-Feb-18 01:55N 34°57' E 136°38'0 0.0
2018-Feb-18 01:28N 34°57' E 136°38'0 0.0
2018-Feb-18 01:00N 34°57' E 136°38'2 4.9
2018-Feb-18 00:30N 34°56' E 136°41'0 0.0
2018-Feb-18 00:00N 34°56' E 136°41'0 0.1
2018-Feb-17 23:30N 34°56' E 136°41'2 3.2
2018-Feb-17 23:00N 34°55' E 136°42'612.4
2018-Feb-17 22:30N 34°49' E 136°46'612.3
2018-Feb-17 22:00N 34°44' E 136°49'612.3
2018-Feb-17 21:29N 34°39' E 136°53'913.0
2018-Feb-17 20:50N 34°33' E 137°01'612.7
2018-Feb-17 20:20N 34°34' E 137°09'412.4
2018-Feb-17 20:00N 34°34' E 137°14'4810.7
2018-Feb-17 15:30N 34°34' E 138°12'510.2
2018-Feb-17 15:00N 34°35' E 138°18'510.7
2018-Feb-17 14:30N 34°37' E 138°24'510.0
2018-Feb-17 13:59N 34°38' E 138°31'4 9.0
2018-Feb-17 13:30N 34°38' E 138°36'4 6.6
2018-Feb-17 12:58N 34°38' E 138°40'3 6.0
2018-Feb-17 12:27N 34°36' E 138°44'2 4.9
2018-Feb-17 11:58N 34°36' E 138°46'2 3.9
2018-Feb-17 11:28N 34°35' E 138°48'2 3.6
2018-Feb-17 10:59N 34°34' E 138°50'2 3.3
2018-Feb-17 10:27N 34°34' E 138°52'2 4.7
2018-Feb-17 09:59N 34°35' E 138°55'2 4.9
2018-Feb-17 09:29N 34°36' E 138°58'4 7.6
2018-Feb-17 08:54N 34°39' E 139°01'511.9
2018-Feb-17 08:30N 34°43' E 139°04'612.0
2018-Feb-17 08:00N 34°48' E 139°08'711.2
2018-Feb-17 07:24N 34°53' E 139°13'4 9.7
2018-Feb-17 07:00N 34°56' E 139°17'5 8.8
2018-Feb-17 06:29N 34°58' E 139°22'4 8.6
2018-Feb-17 06:00N 35°00' E 139°26'5 9.5
2018-Feb-17 05:30N 35°02' E 139°31'510.1
2018-Feb-17 05:00N 35°05' E 139°37'511.0
2018-Feb-17 04:30N 35°07' E 139°42'612.2
2018-Feb-17 04:00N 35°13' E 139°46'612.5
2018-Feb-17 03:30N 35°18' E 139°44'612.1
2018-Feb-17 03:00N 35°24' E 139°43'713.7
2018-Feb-17 02:31N 35°30' E 139°48'2 3.9
2018-Feb-17 01:53N 35°32' E 139°48'0 0.0
2018-Feb-17 01:02N 35°32' E 139°48'0 0.0
2018-Feb-17 00:50N 35°32' E 139°48'0 0.0
2018-Feb-16 22:32N 35°32' E 139°48'0 0.0
2018-Feb-16 22:30N 35°32' E 139°48'2 3.7
2018-Feb-16 22:00N 35°31' E 139°50'510.5
2018-Feb-16 21:31N 35°29' E 139°56'0 0.2
2018-Feb-16 20:59N 35°29' E 139°56'0 0.0
2018-Feb-16 20:29N 35°29' E 139°56'0 0.0
2018-Feb-16 19:59N 35°29' E 139°56'0 0.1
2018-Feb-16 19:26N 35°29' E 139°56'0 0.0
2018-Feb-16 18:59N 35°29' E 139°56'0 0.0
2018-Feb-16 18:29N 35°29' E 139°56'0 0.0
2018-Feb-16 17:59N 35°29' E 139°56'0 0.0
2018-Feb-16 17:29N 35°29' E 139°56'0 0.0
2018-Feb-16 16:59N 35°29' E 139°56'0 0.0
2018-Feb-16 16:26N 35°29' E 139°56'0 0.1
2018-Feb-16 15:59N 35°29' E 139°56'0 0.0
2018-Feb-16 15:29N 35°29' E 139°56'0 0.0
2018-Feb-16 14:59N 35°29' E 139°56'0 0.0
2018-Feb-16 14:29N 35°29' E 139°56'0 0.0
2018-Feb-16 13:59N 35°29' E 139°56'0 0.0
2018-Feb-16 13:29N 35°29' E 139°56'0 0.0
2018-Feb-16 12:59N 35°29' E 139°56'0 0.0
2018-Feb-16 12:29N 35°29' E 139°56'0 0.0
2018-Feb-16 11:59N 35°29' E 139°56'0 0.0
2018-Feb-16 11:29N 35°29' E 139°56'0 0.0
2018-Feb-16 10:59N 35°29' E 139°56'0 0.1
2018-Feb-16 10:29N 35°29' E 139°55'0 0.1
2018-Feb-16 09:59N 35°29' E 139°56'0 0.1
2018-Feb-16 09:29N 35°29' E 139°55'0 0.1
2018-Feb-16 08:59N 35°29' E 139°56'0 0.5
2018-Feb-16 08:31N 35°29' E 139°56'4 7.7
2018-Feb-16 08:00N 35°29' E 140°01'0 0.1
2018-Feb-16 07:09N 35°29' E 140°01'0 0.0
2018-Feb-16 06:57N 35°29' E 140°01'0 0.0
2018-Feb-16 05:45N 35°29' E 140°01'0 0.0
2018-Feb-16 04:51N 35°29' E 140°01'0 0.0
2018-Feb-16 04:27N 35°29' E 140°01'0 0.0
2018-Feb-16 03:57N 35°29' E 140°01'0 0.0
2018-Feb-16 03:27N 35°29' E 140°01'0 0.0
2018-Feb-16 02:57N 35°29' E 140°01'0 0.0
2018-Feb-16 02:15N 35°29' E 140°01'0 0.0
2018-Feb-16 01:33N 35°29' E 140°01'0 0.0
2018-Feb-16 01:21N 35°29' E 140°01'0 0.0
2018-Feb-16 00:57N 35°29' E 140°01'1 2.8
2018-Feb-16 00:30N 35°30' E 139°60'0 0.1
2018-Feb-15 23:58N 35°30' E 139°60'0 0.0
2018-Feb-15 23:19N 35°30' E 139°60'0 0.0
2018-Feb-15 22:58N 35°30' E 139°60'0 0.0
2018-Feb-15 22:28N 35°30' E 139°60'0 0.0
2018-Feb-15 21:58N 35°30' E 139°60'0 0.1
2018-Feb-15 21:28N 35°30' E 139°60'0 0.0
2018-Feb-15 20:49N 35°30' E 139°60'0 0.0
2018-Feb-15 20:25N 35°30' E 139°60'0 0.0
2018-Feb-15 19:52N 35°30' E 139°60'0 0.0
2018-Feb-15 19:28N 35°30' E 139°60'0 0.0
2018-Feb-15 18:55N 35°30' E 139°60'0 0.0
2018-Feb-15 18:25N 35°30' E 139°60'0 0.0
2018-Feb-15 17:58N 35°30' E 139°60'0 0.0
2018-Feb-15 17:28N 35°30' E 139°60'0 0.1
2018-Feb-15 16:49N 35°30' E 139°60'0 0.0
2018-Feb-15 16:28N 35°30' E 139°60'0 0.0
2018-Feb-15 15:58N 35°30' E 139°60'0 0.0
2018-Feb-15 15:28N 35°30' E 139°60'0 0.0
2018-Feb-15 14:58N 35°30' E 139°60'0 0.0
2018-Feb-15 14:25N 35°30' E 139°60'0 0.0
2018-Feb-15 13:58N 35°30' E 139°60'0 0.1
2018-Feb-15 13:28N 35°30' E 139°60'0 0.0
2018-Feb-15 12:55N 35°30' E 139°60'0 0.0
2018-Feb-15 12:28N 35°30' E 139°60'0 0.0
2018-Feb-15 11:52N 35°30' E 139°60'0 0.0
2018-Feb-15 11:28N 35°30' E 139°60'0 0.0
2018-Feb-15 10:46N 35°30' E 139°60'0 0.0
2018-Feb-15 10:25N 35°30' E 139°60'0 0.0
2018-Feb-15 09:49N 35°30' E 139°60'2 7.2
2018-Feb-15 09:30N 35°32' E 140°01'510.4
2018-Feb-15 09:00N 35°36' E 140°05'0 0.0
2018-Feb-15 08:30N 35°36' E 140°05'0 0.0
2018-Feb-15 08:00N 35°36' E 140°05'0 0.0
2018-Feb-15 07:30N 35°36' E 140°05'0 0.0
2018-Feb-15 06:57N 35°36' E 140°05'0 0.0
2018-Feb-15 06:24N 35°36' E 140°05'0 0.0
2018-Feb-15 06:00N 35°36' E 140°05'0 0.0
2018-Feb-15 05:30N 35°36' E 140°05'0 0.0
2018-Feb-15 05:00N 35°36' E 140°05'0 0.0
2018-Feb-15 04:30N 35°36' E 140°05'0 0.0
2018-Feb-15 04:00N 35°36' E 140°05'1 1.3
2018-Feb-15 03:30N 35°36' E 140°04'1 1.3
2018-Feb-15 02:58N 35°35' E 140°03'0 0.0
2018-Feb-15 02:28N 35°35' E 140°03'0 0.1
2018-Feb-15 02:01N 35°35' E 140°03'0 0.0
2018-Feb-15 01:28N 35°35' E 140°03'0 0.0
2018-Feb-15 01:01N 35°35' E 140°03'0 0.0
2018-Feb-15 00:31N 35°35' E 140°03'0 0.0
2018-Feb-15 00:01N 35°35' E 140°03'0 0.0
2018-Feb-14 23:28N 35°35' E 140°03'0 0.0
2018-Feb-14 23:01N 35°35' E 140°03'0 0.1
2018-Feb-14 22:31N 35°35' E 140°03'0 0.0
2018-Feb-14 22:01N 35°35' E 140°03'0 0.1
2018-Feb-14 21:28N 35°35' E 140°03'0 0.0
2018-Feb-14 21:01N 35°35' E 140°03'0 0.0
2018-Feb-14 20:31N 35°35' E 140°03'0 0.0
2018-Feb-14 19:58N 35°35' E 140°03'0 0.0
2018-Feb-14 19:28N 35°35' E 140°03'0 0.0
2018-Feb-14 18:58N 35°35' E 140°03'0 0.0
2018-Feb-14 18:28N 35°35' E 140°03'0 0.0
2018-Feb-14 18:01N 35°35' E 140°03'0 0.0
2018-Feb-14 17:31N 35°35' E 140°03'0 0.0
2018-Feb-14 16:57N 35°35' E 140°03'0 0.0
2018-Feb-14 16:30N 35°35' E 140°03'0 0.0
2018-Feb-14 16:01N 35°35' E 140°03'0 0.0
2018-Feb-14 15:28N 35°35' E 140°03'0 0.0
2018-Feb-14 15:01N 35°35' E 140°03'0 0.0
2018-Feb-14 14:31N 35°35' E 140°03'0 0.0
2018-Feb-14 13:58N 35°35' E 140°03'0 0.0
2018-Feb-14 13:30N 35°35' E 140°03'0 0.0
2018-Feb-14 12:58N 35°35' E 140°03'0 0.0
2018-Feb-14 12:28N 35°35' E 140°03'0 0.0
2018-Feb-14 12:01N 35°35' E 140°03'0 0.0
2018-Feb-14 11:28N 35°35' E 140°03'0 0.0
2018-Feb-14 11:01N 35°35' E 140°03'0 0.0
2018-Feb-14 10:31N 35°35' E 140°03'0 0.0
2018-Feb-14 10:01N 35°35' E 140°03'0 0.0
2018-Feb-14 09:30N 35°35' E 140°03'0 0.0
2018-Feb-14 09:00N 35°35' E 140°03'0 0.0
2018-Feb-14 08:31N 35°35' E 140°03'0 0.0
2018-Feb-14 08:01N 35°35' E 140°03'0 0.0
2018-Feb-14 07:31N 35°35' E 140°03'0 0.0
2018-Feb-14 07:01N 35°35' E 140°03'0 0.0
2018-Feb-14 06:31N 35°35' E 140°03'2 3.7
2018-Feb-14 06:00N 35°34' E 140°01'510.1
2018-Feb-14 05:30N 35°29' E 139°60'1 0.5
2018-Feb-14 03:35N 35°29' E 140°01'0 0.1
2018-Feb-14 03:29N 35°29' E 140°01'0 0.0
2018-Feb-14 02:56N 35°29' E 140°01'0 0.0
2018-Feb-14 02:29N 35°29' E 140°01'0 0.0
2018-Feb-14 01:56N 35°29' E 140°01'0 0.0
2018-Feb-14 01:26N 35°29' E 140°01'0 0.0
2018-Feb-14 00:59N 35°29' E 140°01'0 0.0
2018-Feb-14 00:23N 35°29' E 140°01'0 0.0
2018-Feb-14 00:00N 35°29' E 140°01'1 2.9
2018-Feb-13 23:30N 35°30' E 139°60'0 0.1
2018-Feb-13 22:59N 35°30' E 139°60'0 0.1
2018-Feb-13 22:26N 35°30' E 139°60'0 0.1
2018-Feb-13 21:59N 35°30' E 139°60'0 0.0
2018-Feb-13 21:29N 35°30' E 139°60'0 0.0
2018-Feb-13 20:59N 35°30' E 139°60'0 0.1
2018-Feb-13 20:26N 35°30' E 139°60'0 0.1
2018-Feb-13 19:59N 35°30' E 139°60'0 0.0
2018-Feb-13 19:26N 35°30' E 139°60'0 0.0
2018-Feb-13 18:56N 35°30' E 139°60'0 0.0
2018-Feb-13 18:29N 35°30' E 139°60'0 0.0
2018-Feb-13 17:59N 35°30' E 139°60'0 0.0
2018-Feb-13 17:29N 35°30' E 139°60'0 0.0
2018-Feb-13 16:59N 35°30' E 139°60'0 0.1
2018-Feb-13 16:29N 35°30' E 139°60'0 0.0
2018-Feb-13 15:59N 35°30' E 139°60'0 0.0
2018-Feb-13 15:26N 35°30' E 139°60'0 0.0
2018-Feb-13 14:59N 35°30' E 139°60'0 0.0
2018-Feb-13 14:29N 35°30' E 139°60'0 0.0
2018-Feb-13 13:59N 35°30' E 139°60'0 0.0
2018-Feb-13 13:29N 35°30' E 139°60'0 0.0
2018-Feb-13 12:59N 35°30' E 139°60'0 0.0
2018-Feb-13 12:26N 35°30' E 139°60'0 0.0
2018-Feb-13 11:56N 35°30' E 139°60'0 0.1
2018-Feb-13 11:26N 35°30' E 139°60'0 0.1
2018-Feb-13 10:59N 35°30' E 139°60'0 0.1
2018-Feb-13 10:29N 35°30' E 139°60'0 0.0
2018-Feb-13 09:53N 35°30' E 139°60'0 0.0
2018-Feb-13 09:29N 35°30' E 139°60'0 0.2
2018-Feb-13 08:59N 35°30' E 139°60'  
Track history (hours):
 
Tides and Currents Weather Stations Pressure Air Temp Water Temp Dewpoint Dewpoint Depression Visibility Wind Speed Wind Dir Waves Ship Positions

Sanko Maru

Last reported at 2018-Feb-23 08:31 UTC. Time now 2018-Feb-23 08:43 UTC.
Position N 35°10' E 139°46'.

Length 104 m; draft 6.8 m.

Type: Ship (hazmat cat A). MMSI: 431100146.

Date/timePositionNaut miles runAvg speedWind from/ knotsBaromVisibWave heightAir tempDewpointWater temp
2018-Feb-23 08:31N 35°10' E 139°46'612.0
2018-Feb-23 08:00N 35°04' E 139°42'612.0
2018-Feb-23 07:30N 35°00' E 139°37'611.8
2018-Feb-23 06:59N 34°56' E 139°31'711.9
2018-Feb-23 06:21N 34°52' E 139°24'612.7
2018-Feb-23 05:55N 34°49' E 139°18'512.3
2018-Feb-23 05:28N 34°45' E 139°13'612.8
2018-Feb-23 05:00N 34°41' E 139°08'712.5
2018-Feb-23 04:26N 34°36' E 139°02'613.1
2018-Feb-23 04:00N 34°32' E 138°57'712.8
2018-Feb-23 03:28N 34°32' E 138°49'613.2
2018-Feb-23 03:00N 34°32' E 138°41'712.5
2018-Feb-23 02:26N 34°32' E 138°32'912.8
2018-Feb-23 01:44N 34°33' E 138°22'312.5
2018-Feb-23 01:28N 34°33' E 138°18'612.3
2018-Feb-23 00:57N 34°34' E 138°10'4112.7
2018-Feb-22 21:41N 34°36' E 137°20'412.5
2018-Feb-22 21:22N 34°35' E 137°15'512.0
2018-Feb-22 20:59N 34°33' E 137°10'711.9
2018-Feb-22 20:25N 34°32' E 137°02'512.3
2018-Feb-22 20:00N 34°36' E 136°57'612.3
2018-Feb-22 19:30N 34°39' E 136°51'612.4
2018-Feb-22 19:00N 34°45' E 136°47'612.5
2018-Feb-22 18:30N 34°50' E 136°44'612.5
2018-Feb-22 18:00N 34°56' E 136°41'2 4.0
2018-Feb-22 17:28N 34°57' E 136°38'0 0.0
2018-Feb-22 16:59N 34°57' E 136°38'0 0.0
2018-Feb-22 16:28N 34°57' E 136°38'0 0.0
2018-Feb-22 15:58N 34°57' E 136°38'0 0.0
2018-Feb-22 15:25N 34°57' E 136°38'0 0.0
2018-Feb-22 14:58N 34°57' E 136°38'0 0.0
2018-Feb-22 14:29N 34°57' E 136°38'0 0.0
2018-Feb-22 13:55N 34°57' E 136°38'0 0.0
2018-Feb-22 13:25N 34°57' E 136°38'0 0.1
2018-Feb-22 12:58N 34°57' E 136°38'0 0.1
2018-Feb-22 12:25N 34°57' E 136°38'0 0.0
2018-Feb-22 11:58N 34°57' E 136°38'0 0.0
2018-Feb-22 11:29N 34°57' E 136°38'0 0.0
2018-Feb-22 10:55N 34°57' E 136°38'0 0.0
2018-Feb-22 10:28N 34°57' E 136°38'0 0.0
2018-Feb-22 09:58N 34°57' E 136°38'0 0.0
2018-Feb-22 09:28N 34°57' E 136°38'0 0.0
2018-Feb-22 08:55N 34°57' E 136°38'0 0.0
2018-Feb-22 08:30N 34°57' E 136°38'2 4.7
2018-Feb-22 08:00N 34°56' E 136°41'0 0.0
2018-Feb-22 07:28N 34°56' E 136°41'0 0.0
2018-Feb-22 06:58N 34°56' E 136°41'0 0.1
2018-Feb-22 06:28N 34°56' E 136°41'0 0.0
2018-Feb-22 05:58N 34°56' E 136°41'0 0.0
2018-Feb-22 05:28N 34°56' E 136°41'0 0.0
2018-Feb-22 04:58N 34°56' E 136°41'0 0.0
2018-Feb-22 04:28N 34°56' E 136°41'0 0.1
2018-Feb-22 03:58N 34°56' E 136°41'0 0.0
2018-Feb-22 03:28N 34°56' E 136°41'0 0.0
2018-Feb-22 02:55N 34°56' E 136°41'0 0.3
2018-Feb-22 02:30N 34°56' E 136°41'612.2
2018-Feb-22 02:00N 34°51' E 136°45'712.8
2018-Feb-22 01:29N 34°45' E 136°48'612.4
2018-Feb-22 00:59N 34°40' E 136°53'1512.0
2018-Feb-21 23:42N 34°34' E 137°10'312.9
2018-Feb-21 23:29N 34°34' E 137°13'612.6
2018-Feb-21 23:00N 34°35' E 137°20'2512.0
2018-Feb-21 20:53N 34°35' E 137°51'611.9
2018-Feb-21 20:24N 34°35' E 137°58'1211.6
2018-Feb-21 19:20N 34°32' E 138°13'511.7
2018-Feb-21 18:53N 34°32' E 138°19'512.1
2018-Feb-21 18:30N 34°33' E 138°25'712.2
2018-Feb-21 17:56N 34°33' E 138°33'712.2
2018-Feb-21 17:23N 34°34' E 138°41'512.4
2018-Feb-21 16:59N 34°34' E 138°47'612.2
2018-Feb-21 16:30N 34°35' E 138°54'711.8
2018-Feb-21 15:55N 34°39' E 139°01'1113.7
2018-Feb-21 15:08N 34°48' E 139°09'912.7
2018-Feb-21 14:23N 34°55' E 139°16'512.9
2018-Feb-21 14:00N 34°58' E 139°21'612.4
2018-Feb-21 13:30N 35°01' E 139°28'612.9
2018-Feb-21 13:01N 35°04' E 139°35'713.6
2018-Feb-21 12:30N 35°07' E 139°42'713.4
2018-Feb-21 12:00N 35°13' E 139°46'612.6
2018-Feb-21 11:30N 35°19' E 139°43'612.2
2018-Feb-21 11:01N 35°25' E 139°43'713.3
2018-Feb-21 10:30N 35°29' E 139°50'713.2
2018-Feb-21 10:00N 35°32' E 139°56'713.3
2018-Feb-21 09:30N 35°35' E 140°03'1 2.0
2018-Feb-21 08:58N 35°36' E 140°05'0 0.0
2018-Feb-21 08:28N 35°36' E 140°05'0 0.0
2018-Feb-21 07:58N 35°36' E 140°05'0 0.0
2018-Feb-21 07:28N 35°36' E 140°05'0 0.0
2018-Feb-21 06:58N 35°36' E 140°05'0 0.0
2018-Feb-21 06:28N 35°36' E 140°05'0 0.0
2018-Feb-21 05:58N 35°36' E 140°05'0 0.0
2018-Feb-21 05:28N 35°36' E 140°05'0 0.0
2018-Feb-21 04:58N 35°36' E 140°05'0 0.0
2018-Feb-21 04:28N 35°36' E 140°05'0 0.0
2018-Feb-21 03:58N 35°36' E 140°05'0 1.0
2018-Feb-21 03:30N 35°36' E 140°04'1 1.7
2018-Feb-21 02:58N 35°35' E 140°03'0 0.0
2018-Feb-21 02:28N 35°35' E 140°03'0 0.1
2018-Feb-21 01:58N 35°35' E 140°03'0 0.1
2018-Feb-21 01:28N 35°35' E 140°03'1 1.8
2018-Feb-21 01:00N 35°35' E 140°02'611.8
2018-Feb-21 00:30N 35°32' E 139°56'611.6
2018-Feb-21 00:00N 35°28' E 139°51'611.5
2018-Feb-20 23:30N 35°24' E 139°46'611.0
2018-Feb-20 23:01N 35°18' E 139°44'611.6
2018-Feb-20 22:30N 35°13' E 139°47'612.1
2018-Feb-20 22:00N 35°07' E 139°46'611.1
2018-Feb-20 21:29N 35°03' E 139°41'511.1
2018-Feb-20 20:59N 34°60' E 139°36'610.8
2018-Feb-20 20:26N 34°56' E 139°30'510.8
2018-Feb-20 20:00N 34°53' E 139°25'611.1
2018-Feb-20 19:28N 34°50' E 139°19'611.6
2018-Feb-20 18:59N 34°46' E 139°15'611.1
2018-Feb-20 18:26N 34°42' E 139°09'511.6
2018-Feb-20 18:00N 34°38' E 139°05'612.6
2018-Feb-20 17:30N 34°34' E 138°59'612.3
2018-Feb-20 17:00N 34°32' E 138°52'612.2
2018-Feb-20 16:29N 34°33' E 138°44'612.5
2018-Feb-20 15:59N 34°33' E 138°37'813.0
2018-Feb-20 15:24N 34°33' E 138°28'713.1
2018-Feb-20 14:51N 34°34' E 138°19'512.8
2018-Feb-20 14:30N 34°33' E 138°14'912.9
2018-Feb-20 13:50N 34°36' E 138°04'3613.2
2018-Feb-20 11:06N 34°36' E 137°20'412.9
2018-Feb-20 10:48N 34°34' E 137°15'512.6
2018-Feb-20 10:26N 34°33' E 137°10'612.3
2018-Feb-20 09:58N 34°32' E 137°03'710.9
2018-Feb-20 09:21N 34°36' E 136°56'411.8
2018-Feb-20 09:00N 34°39' E 136°52'612.0
2018-Feb-20 08:30N 34°43' E 136°47'612.4
2018-Feb-20 08:00N 34°49' E 136°44'612.0
2018-Feb-20 07:30N 34°54' E 136°42'4 7.1
2018-Feb-20 07:01N 34°57' E 136°38'0 0.2
2018-Feb-20 06:28N 34°57' E 136°38'0 0.0
2018-Feb-20 05:58N 34°57' E 136°38'0 0.0
2018-Feb-20 05:28N 34°57' E 136°38'0 0.0
2018-Feb-20 04:58N 34°57' E 136°38'0 0.0
2018-Feb-20 04:28N 34°57' E 136°38'0 0.0
2018-Feb-20 03:58N 34°57' E 136°38'0 0.0
2018-Feb-20 03:28N 34°57' E 136°38'0 0.0
2018-Feb-20 02:58N 34°57' E 136°38'0 0.0
2018-Feb-20 02:28N 34°57' E 136°38'0 0.0
2018-Feb-20 01:58N 34°57' E 136°38'0 0.0
2018-Feb-20 01:28N 34°57' E 136°38'0 0.0
2018-Feb-20 00:58N 34°57' E 136°38'0 0.0
2018-Feb-20 00:28N 34°57' E 136°38'0 0.0
2018-Feb-19 23:55N 34°57' E 136°38'0 0.0
2018-Feb-19 23:28N 34°57' E 136°38'0 0.0
2018-Feb-19 22:58N 34°57' E 136°38'0 0.0
2018-Feb-19 22:29N 34°57' E 136°38'0 0.0
2018-Feb-19 05:30N 34°57' E 136°38'2 4.4
2018-Feb-19 05:01N 34°56' E 136°41'713.2
2018-Feb-19 04:31N 34°51' E 136°46'3 5.9
2018-Feb-19 03:58N 34°51' E 136°49'0 0.1
2018-Feb-19 03:28N 34°51' E 136°49'0 0.1
2018-Feb-19 02:58N 34°51' E 136°49'0 0.0
2018-Feb-19 02:28N 34°51' E 136°49'0 0.1
2018-Feb-19 01:58N 34°51' E 136°49'0 0.0
2018-Feb-19 01:28N 34°51' E 136°49'0 0.1
2018-Feb-19 00:58N 34°51' E 136°49'0 0.0
2018-Feb-19 00:25N 34°51' E 136°49'0 0.0
2018-Feb-18 23:58N 34°51' E 136°49'1 1.8
2018-Feb-18 23:30N 34°50' E 136°50'2 3.5
2018-Feb-18 23:00N 34°50' E 136°48'611.3
2018-Feb-18 22:30N 34°55' E 136°44'2 2.8
2018-Feb-18 21:58N 34°56' E 136°43'0 0.0
2018-Feb-18 21:28N 34°56' E 136°43'0 0.0
2018-Feb-18 20:58N 34°56' E 136°43'0 0.0
2018-Feb-18 20:28N 34°56' E 136°43'0 0.0
2018-Feb-18 19:58N 34°56' E 136°43'0 0.0
2018-Feb-18 19:28N 34°56' E 136°43'0 0.0
2018-Feb-18 18:58N 34°56' E 136°43'0 0.0
2018-Feb-18 18:28N 34°56' E 136°43'0 0.0
2018-Feb-18 17:58N 34°56' E 136°43'0 0.0
2018-Feb-18 17:25N 34°56' E 136°43'0 0.0
2018-Feb-18 17:00N 34°56' E 136°43'0 0.0
2018-Feb-18 16:30N 34°56' E 136°43'0 0.0
2018-Feb-18 16:00N 34°56' E 136°43'0 0.0
2018-Feb-18 15:30N 34°56' E 136°43'0 0.0
2018-Feb-18 14:57N 34°56' E 136°43'0 0.0
2018-Feb-18 14:30N 34°56' E 136°43'0 0.0
2018-Feb-18 14:00N 34°56' E 136°43'0 0.0
2018-Feb-18 13:30N 34°56' E 136°43'0 0.0
2018-Feb-18 13:00N 34°56' E 136°43'0 0.0
2018-Feb-18 12:30N 34°56' E 136°43'0 0.0
2018-Feb-18 12:00N 34°56' E 136°43'0 0.0
2018-Feb-18 11:30N 34°56' E 136°43'0 0.0
2018-Feb-18 11:00N 34°56' E 136°43'0 0.0
2018-Feb-18 10:30N 34°56' E 136°43'3 6.2
2018-Feb-18 10:00N 34°58' E 136°41'2 4.5
2018-Feb-18 09:28N 34°57' E 136°38'0 0.0
2018-Feb-18 08:58N 34°57' E 136°38'0 0.0
2018-Feb-18 08:28N 34°57' E 136°38'0 0.0
2018-Feb-18 07:58N 34°57' E 136°38'0 0.0
2018-Feb-18 07:28N 34°57' E 136°38'0 0.0
2018-Feb-18 06:55N 34°57' E 136°38'0 0.0
2018-Feb-18 06:28N 34°57' E 136°38'0 0.0
2018-Feb-18 05:58N 34°57' E 136°38'0 0.0
2018-Feb-18 05:25N 34°57' E 136°38'0 0.0
2018-Feb-18 04:55N 34°57' E 136°38'0 0.0
2018-Feb-18 04:28N 34°57' E 136°38'0 0.0
2018-Feb-18 03:55N 34°57' E 136°38'0 0.0
2018-Feb-18 03:28N 34°57' E 136°38'0 0.0
2018-Feb-18 02:58N 34°57' E 136°38'0 0.0
2018-Feb-18 02:25N 34°57' E 136°38'0 0.0
2018-Feb-18 01:55N 34°57' E 136°38'0 0.0
2018-Feb-18 01:28N 34°57' E 136°38'0 0.0
2018-Feb-18 01:00N 34°57' E 136°38'2 4.9
2018-Feb-18 00:30N 34°56' E 136°41'0 0.0
2018-Feb-18 00:00N 34°56' E 136°41'0 0.1
2018-Feb-17 23:30N 34°56' E 136°41'2 3.2
2018-Feb-17 23:00N 34°55' E 136°42'612.4
2018-Feb-17 22:30N 34°49' E 136°46'612.3
2018-Feb-17 22:00N 34°44' E 136°49'612.3
2018-Feb-17 21:29N 34°39' E 136°53'913.0
2018-Feb-17 20:50N 34°33' E 137°01'612.7
2018-Feb-17 20:20N 34°34' E 137°09'412.4
2018-Feb-17 20:00N 34°34' E 137°14'4810.7
2018-Feb-17 15:30N 34°34' E 138°12'510.2
2018-Feb-17 15:00N 34°35' E 138°18'510.7
2018-Feb-17 14:30N 34°37' E 138°24'510.0
2018-Feb-17 13:59N 34°38' E 138°31'4 9.0
2018-Feb-17 13:30N 34°38' E 138°36'4 6.6
2018-Feb-17 12:58N 34°38' E 138°40'3 6.0
2018-Feb-17 12:27N 34°36' E 138°44'2 4.9
2018-Feb-17 11:58N 34°36' E 138°46'2 3.9
2018-Feb-17 11:28N 34°35' E 138°48'2 3.6
2018-Feb-17 10:59N 34°34' E 138°50'2 3.3
2018-Feb-17 10:27N 34°34' E 138°52'2 4.7
2018-Feb-17 09:59N 34°35' E 138°55'2 4.9
2018-Feb-17 09:29N 34°36' E 138°58'4 7.6
2018-Feb-17 08:54N 34°39' E 139°01'511.9
2018-Feb-17 08:30N 34°43' E 139°04'612.0
2018-Feb-17 08:00N 34°48' E 139°08'711.2
2018-Feb-17 07:24N 34°53' E 139°13'4 9.7
2018-Feb-17 07:00N 34°56' E 139°17'5 8.8
2018-Feb-17 06:29N 34°58' E 139°22'4 8.6
2018-Feb-17 06:00N 35°00' E 139°26'5 9.5
2018-Feb-17 05:30N 35°02' E 139°31'510.1
2018-Feb-17 05:00N 35°05' E 139°37'511.0
2018-Feb-17 04:30N 35°07' E 139°42'612.2
2018-Feb-17 04:00N 35°13' E 139°46'612.5
2018-Feb-17 03:30N 35°18' E 139°44'612.1
2018-Feb-17 03:00N 35°24' E 139°43'713.7
2018-Feb-17 02:31N 35°30' E 139°48'2 3.9
2018-Feb-17 01:53N 35°32' E 139°48'0 0.0
2018-Feb-17 01:02N 35°32' E 139°48'0 0.0
2018-Feb-17 00:50N 35°32' E 139°48'0 0.0
2018-Feb-16 22:32N 35°32' E 139°48'0 0.0
2018-Feb-16 22:30N 35°32' E 139°48'2 3.7
2018-Feb-16 22:00N 35°31' E 139°50'510.5
2018-Feb-16 21:31N 35°29' E 139°56'0 0.2
2018-Feb-16 20:59N 35°29' E 139°56'0 0.0
2018-Feb-16 20:29N 35°29' E 139°56'0 0.0
2018-Feb-16 19:59N 35°29' E 139°56'0 0.1
2018-Feb-16 19:26N 35°29' E 139°56'0 0.0
2018-Feb-16 18:59N 35°29' E 139°56'0 0.0
2018-Feb-16 18:29N 35°29' E 139°56'0 0.0
2018-Feb-16 17:59N 35°29' E 139°56'0 0.0
2018-Feb-16 17:29N 35°29' E 139°56'0 0.0
2018-Feb-16 16:59N 35°29' E 139°56'0 0.0
2018-Feb-16 16:26N 35°29' E 139°56'0 0.1
2018-Feb-16 15:59N 35°29' E 139°56'0 0.0
2018-Feb-16 15:29N 35°29' E 139°56'0 0.0
2018-Feb-16 14:59N 35°29' E 139°56'0 0.0
2018-Feb-16 14:29N 35°29' E 139°56'0 0.0
2018-Feb-16 13:59N 35°29' E 139°56'0 0.0
2018-Feb-16 13:29N 35°29' E 139°56'0 0.0
2018-Feb-16 12:59N 35°29' E 139°56'0 0.0
2018-Feb-16 12:29N 35°29' E 139°56'0 0.0
2018-Feb-16 11:59N 35°29' E 139°56'0 0.0
2018-Feb-16 11:29N 35°29' E 139°56'0 0.0
2018-Feb-16 10:59N 35°29' E 139°56'0 0.1
2018-Feb-16 10:29N 35°29' E 139°55'0 0.1
2018-Feb-16 09:59N 35°29' E 139°56'0 0.1
2018-Feb-16 09:29N 35°29' E 139°55'0 0.1
2018-Feb-16 08:59N 35°29' E 139°56'0 0.5
2018-Feb-16 08:31N 35°29' E 139°56'4 7.7
2018-Feb-16 08:00N 35°29' E 140°01'0 0.1
2018-Feb-16 07:09N 35°29' E 140°01'0 0.0
2018-Feb-16 06:57N 35°29' E 140°01'0 0.0
2018-Feb-16 05:45N 35°29' E 140°01'0 0.0
2018-Feb-16 04:51N 35°29' E 140°01'0 0.0
2018-Feb-16 04:27N 35°29' E 140°01'0 0.0
2018-Feb-16 03:57N 35°29' E 140°01'0 0.0
2018-Feb-16 03:27N 35°29' E 140°01'0 0.0
2018-Feb-16 02:57N 35°29' E 140°01'0 0.0
2018-Feb-16 02:15N 35°29' E 140°01'0 0.0
2018-Feb-16 01:33N 35°29' E 140°01'0 0.0
2018-Feb-16 01:21N 35°29' E 140°01'0 0.0
2018-Feb-16 00:57N 35°29' E 140°01'1 2.8
2018-Feb-16 00:30N 35°30' E 139°60'0 0.1
2018-Feb-15 23:58N 35°30' E 139°60'0 0.0
2018-Feb-15 23:19N 35°30' E 139°60'0 0.0
2018-Feb-15 22:58N 35°30' E 139°60'0 0.0
2018-Feb-15 22:28N 35°30' E 139°60'0 0.0
2018-Feb-15 21:58N 35°30' E 139°60'0 0.1
2018-Feb-15 21:28N 35°30' E 139°60'0 0.0
2018-Feb-15 20:49N 35°30' E 139°60'0 0.0
2018-Feb-15 20:25N 35°30' E 139°60'0 0.0
2018-Feb-15 19:52N 35°30' E 139°60'0 0.0
2018-Feb-15 19:28N 35°30' E 139°60'0 0.0
2018-Feb-15 18:55N 35°30' E 139°60'0 0.0
2018-Feb-15 18:25N 35°30' E 139°60'0 0.0
2018-Feb-15 17:58N 35°30' E 139°60'0 0.0
2018-Feb-15 17:28N 35°30' E 139°60'0 0.1
2018-Feb-15 16:49N 35°30' E 139°60'0 0.0
2018-Feb-15 16:28N 35°30' E 139°60'0 0.0
2018-Feb-15 15:58N 35°30' E 139°60'0 0.0
2018-Feb-15 15:28N 35°30' E 139°60'0 0.0
2018-Feb-15 14:58N 35°30' E 139°60'0 0.0
2018-Feb-15 14:25N 35°30' E 139°60'0 0.0
2018-Feb-15 13:58N 35°30' E 139°60'0 0.1
2018-Feb-15 13:28N 35°30' E 139°60'0 0.0
2018-Feb-15 12:55N 35°30' E 139°60'0 0.0
2018-Feb-15 12:28N 35°30' E 139°60'0 0.0
2018-Feb-15 11:52N 35°30' E 139°60'0 0.0
2018-Feb-15 11:28N 35°30' E 139°60'0 0.0
2018-Feb-15 10:46N 35°30' E 139°60'0 0.0
2018-Feb-15 10:25N 35°30' E 139°60'0 0.0
2018-Feb-15 09:49N 35°30' E 139°60'2 7.2
2018-Feb-15 09:30N 35°32' E 140°01'510.4
2018-Feb-15 09:00N 35°36' E 140°05'0 0.0
2018-Feb-15 08:30N 35°36' E 140°05'0 0.0
2018-Feb-15 08:00N 35°36' E 140°05'0 0.0
2018-Feb-15 07:30N 35°36' E 140°05'0 0.0
2018-Feb-15 06:57N 35°36' E 140°05'0 0.0
2018-Feb-15 06:24N 35°36' E 140°05'0 0.0
2018-Feb-15 06:00N 35°36' E 140°05'0 0.0
2018-Feb-15 05:30N 35°36' E 140°05'0 0.0
2018-Feb-15 05:00N 35°36' E 140°05'0 0.0
2018-Feb-15 04:30N 35°36' E 140°05'0 0.0
2018-Feb-15 04:00N 35°36' E 140°05'1 1.3
2018-Feb-15 03:30N 35°36' E 140°04'1 1.3
2018-Feb-15 02:58N 35°35' E 140°03'0 0.0
2018-Feb-15 02:28N 35°35' E 140°03'0 0.1
2018-Feb-15 02:01N 35°35' E 140°03'0 0.0
2018-Feb-15 01:28N 35°35' E 140°03'0 0.0
2018-Feb-15 01:01N 35°35' E 140°03'0 0.0
2018-Feb-15 00:31N 35°35' E 140°03'0 0.0
2018-Feb-15 00:01N 35°35' E 140°03'0 0.0
2018-Feb-14 23:28N 35°35' E 140°03'0 0.0
2018-Feb-14 23:01N 35°35' E 140°03'0 0.1
2018-Feb-14 22:31N 35°35' E 140°03'0 0.0
2018-Feb-14 22:01N 35°35' E 140°03'0 0.1
2018-Feb-14 21:28N 35°35' E 140°03'0 0.0
2018-Feb-14 21:01N 35°35' E 140°03'0 0.0
2018-Feb-14 20:31N 35°35' E 140°03'0 0.0
2018-Feb-14 19:58N 35°35' E 140°03'0 0.0
2018-Feb-14 19:28N 35°35' E 140°03'0 0.0
2018-Feb-14 18:58N 35°35' E 140°03'0 0.0
2018-Feb-14 18:28N 35°35' E 140°03'0 0.0
2018-Feb-14 18:01N 35°35' E 140°03'0 0.0
2018-Feb-14 17:31N 35°35' E 140°03'0 0.0
2018-Feb-14 16:57N 35°35' E 140°03'0 0.0
2018-Feb-14 16:30N 35°35' E 140°03'0 0.0
2018-Feb-14 16:01N 35°35' E 140°03'0 0.0
2018-Feb-14 15:28N 35°35' E 140°03'0 0.0
2018-Feb-14 15:01N 35°35' E 140°03'0 0.0
2018-Feb-14 14:31N 35°35' E 140°03'0 0.0
2018-Feb-14 13:58N 35°35' E 140°03'0 0.0
2018-Feb-14 13:30N 35°35' E 140°03'0 0.0
2018-Feb-14 12:58N 35°35' E 140°03'0 0.0
2018-Feb-14 12:28N 35°35' E 140°03'0 0.0
2018-Feb-14 12:01N 35°35' E 140°03'0 0.0
2018-Feb-14 11:28N 35°35' E 140°03'0 0.0
2018-Feb-14 11:01N 35°35' E 140°03'0 0.0
2018-Feb-14 10:31N 35°35' E 140°03'0 0.0
2018-Feb-14 10:01N 35°35' E 140°03'0 0.0
2018-Feb-14 09:30N 35°35' E 140°03'0 0.0
2018-Feb-14 09:00N 35°35' E 140°03'0 0.0
2018-Feb-14 08:31N 35°35' E 140°03'0 0.0
2018-Feb-14 08:01N 35°35' E 140°03'0 0.0
2018-Feb-14 07:31N 35°35' E 140°03'0 0.0
2018-Feb-14 07:01N 35°35' E 140°03'0 0.0
2018-Feb-14 06:31N 35°35' E 140°03'2 3.7
2018-Feb-14 06:00N 35°34' E 140°01'510.1
2018-Feb-14 05:30N 35°29' E 139°60'1 0.5
2018-Feb-14 03:35N 35°29' E 140°01'0 0.1
2018-Feb-14 03:29N 35°29' E 140°01'0 0.0
2018-Feb-14 02:56N 35°29' E 140°01'0 0.0
2018-Feb-14 02:29N 35°29' E 140°01'0 0.0
2018-Feb-14 01:56N 35°29' E 140°01'0 0.0
2018-Feb-14 01:26N 35°29' E 140°01'0 0.0
2018-Feb-14 00:59N 35°29' E 140°01'0 0.0
2018-Feb-14 00:23N 35°29' E 140°01'0 0.0
2018-Feb-14 00:00N 35°29' E 140°01'1 2.9
2018-Feb-13 23:30N 35°30' E 139°60'0 0.1
2018-Feb-13 22:59N 35°30' E 139°60'0 0.1
2018-Feb-13 22:26N 35°30' E 139°60'0 0.1
2018-Feb-13 21:59N 35°30' E 139°60'0 0.0
2018-Feb-13 21:29N 35°30' E 139°60'0 0.0
2018-Feb-13 20:59N 35°30' E 139°60'0 0.1
2018-Feb-13 20:26N 35°30' E 139°60'0 0.1
2018-Feb-13 19:59N 35°30' E 139°60'0 0.0
2018-Feb-13 19:26N 35°30' E 139°60'0 0.0
2018-Feb-13 18:56N 35°30' E 139°60'0 0.0
2018-Feb-13 18:29N 35°30' E 139°60'0 0.0
2018-Feb-13 17:59N 35°30' E 139°60'0 0.0
2018-Feb-13 17:29N 35°30' E 139°60'0 0.0
2018-Feb-13 16:59N 35°30' E 139°60'0 0.1
2018-Feb-13 16:29N 35°30' E 139°60'0 0.0
2018-Feb-13 15:59N 35°30' E 139°60'0 0.0
2018-Feb-13 15:26N 35°30' E 139°60'0 0.0
2018-Feb-13 14:59N 35°30' E 139°60'0 0.0
2018-Feb-13 14:29N 35°30' E 139°60'0 0.0
2018-Feb-13 13:59N 35°30' E 139°60'0 0.0
2018-Feb-13 13:29N 35°30' E 139°60'0 0.0
2018-Feb-13 12:59N 35°30' E 139°60'0 0.0
2018-Feb-13 12:26N 35°30' E 139°60'0 0.0
2018-Feb-13 11:56N 35°30' E 139°60'0 0.1
2018-Feb-13 11:26N 35°30' E 139°60'0 0.1
2018-Feb-13 10:59N 35°30' E 139°60'0 0.1
2018-Feb-13 10:29N 35°30' E 139°60'0 0.0
2018-Feb-13 09:53N 35°30' E 139°60'0 0.0
2018-Feb-13 09:29N 35°30' E 139°60'0 0.2
2018-Feb-13 08:59N 35°30' E 139°60'  

Dump ship's entire track history